Terminal Aerodrome Forecast
Issued by NWS

Home | Current Version | Previous Version | Text Only | Print | Product List | Glossary On
Versions: 1 2 3 4 5 6 7 8 9 10 11 12 13 14 15 16 17 18 19 20 21 22 23 24 25 26
191
FTUS43 KDVN 150933 AAA
TAFBRL
TAF AMD
KBRL 150933Z 1510/1606 20003KT 6SM BR SCT050
      TEMPO 1510/1512 4SM BR SCT007
     FM151400 17005KT P6SM SCT040
     FM152200 12005KT P6SM VCSH BKN050=

USA.gov is the U.S. government's official web portal to all federal, state and local government web resources and services.